Contact Us:
Email: info@sawbill.com
Phone: (218)663-7150
Fax: (218)663-7980
Mail: 4620 Sawbill Trail
Box 2129
Tofte, MN 55615


Powered by
Movable Type 3.15
 
Sawbill Weather History Archives: August 2008
Current Sawbill Weather History | « July 2008 | September 2008 »


Date

High
Temperature

Low
Temperature

Barometric
Pressure

Relative
Humidity 7AM

9 AM
Temperature

Moisture

Snow

8/31/08 80 52 30.21 83% 59 0
8/30/08 74 46 30.24 87% 52 0
8/29/08 68 49 30.13 88% 54 0
8/28/08 67 49 30.09 96% 51 .2"
8/27/08 67 49 29.91 98% 57 2.2"
8/26/08 70 42 30.12 87% 49 0
8/25/08 69 41 30.27 74% 42 0
8/24/08 65 41 30.36 76% 41 0
8/23/08 62 49 30.30 84% 49 .02"
8/22/08 71 57 30.06 87% 57 .07"
8/21/08 75 60 30.06 96% 64 .02"
8/20/08 81 52 30.21 91% 60 0
8/19/08 67 51 30.33 83% 51 0
8/18/08 72 52 30.36 83% 52 0
8/17/08 84 59 30.09 77% 66 0
8/16/08 78 59 30.50 90% 68 0
8/15/08 73 48 30.30 69% 61 0
8/14/08 71 46 30.42 83% 50 0
8/13/08 70 56 30.01 92% 58 0
8/12/08 72 58 30.06 98% 60 Trace
8/11/08 72 46 29.87 85% 52 0
8/10/08 70 45 30.27 79% 46 0
8/9/08 69 45 30.30 79% 46 0
8/8/08 74 55 30.18 93% 59 .04"
8/7/08 70 54 30.27 91% 55 0
8/6/08 72 54 30.27 96% 55 .23"
8/5/08 74 53 30.24 83% 54 0
8/4/08 78 57 30.15 87% 58 0
8/3/08 75 54 30.09 93% 64 0
8/2/08 75 53 30.12 84% 54 0
8/1/08 73 52 30.18 68% 62 0
 


Home I Trip Planning I Rentals and Outfitting I Reservations I Campgrounds I Sawbill Store I Sawbill News I Contact

© 1997 - 2017, Sawbill Canoe Outfitters, Inc. I Privacy Policy